sensor_id;sensor_type;location;lat;lon;timestamp;temperature;humidity
61672;DHT22;47572;0.00000000;0.00000000;2022-11-11T00:02:02;19.80;73.10
61672;DHT22;47572;0.00000000;0.00000000;2022-11-11T00:04:28;19.70;73.00
61672;DHT22;47572;0.00000000;0.00000000;2022-11-11T00:06:53;19.70;73.10
61672;DHT22;47572;0.00000000;0.00000000;2022-11-11T00:09:20;19.70;73.00
61672;DHT22;47572;0.00000000;0.00000000;2022-11-11T00:11:46;19.70;73.10
61672;DHT22;47572;0.00000000;0.00000000;2022-11-11T00:14:11;19.70;73.10
61672;DHT22;47572;0.00000000;0.00000000;2022-11-11T00:16:37;19.70;73.10
61672;DHT22;47572;0.00000000;0.00000000;2022-11-11T00:19:21;19.70;73.10
61672;DHT22;47572;0.00000000;0.00000000;2022-11-11T00:22:11;19.70;73.10
61672;DHT22;47572;0.00000000;0.00000000;2022-11-11T00:24:52;19.70;73.00
61672;DHT22;47572;0.00000000;0.00000000;2022-11-11T00:27:30;19.70;73.00
61672;DHT22;47572;0.00000000;0.00000000;2022-11-11T00:29:56;19.70;73.00
61672;DHT22;47572;0.00000000;0.00000000;2022-11-11T00:32:22;19.70;73.00
61672;DHT22;47572;0.00000000;0.00000000;2022-11-11T00:34:48;19.70;73.00
61672;DHT22;47572;0.00000000;0.00000000;2022-11-11T00:37:33;19.70;73.00
61672;DHT22;47572;0.00000000;0.00000000;2022-11-11T00:39:59;19.70;73.00
61672;DHT22;47572;0.00000000;0.00000000;2022-11-11T00:42:25;19.70;73.00
61672;DHT22;47572;0.00000000;0.00000000;2022-11-11T00:44:51;19.60;72.90
61672;DHT22;47572;0.00000000;0.00000000;2022-11-11T00:47:16;19.60;72.90
61672;DHT22;47572;0.00000000;0.00000000;2022-11-11T00:50:01;19.70;73.00
61672;DHT22;47572;0.00000000;0.00000000;2022-11-11T00:52:46;19.60;73.00
61672;DHT22;47572;0.00000000;0.00000000;2022-11-11T00:55:12;19.60;73.00
61672;DHT22;47572;0.00000000;0.00000000;2022-11-11T00:57:38;19.60;73.00
61672;DHT22;47572;0.00000000;0.00000000;2022-11-11T01:00:04;19.60;73.00
61672;DHT22;47572;0.00000000;0.00000000;2022-11-11T01:02:29;19.60;73.00
61672;DHT22;47572;0.00000000;0.00000000;2022-11-11T01:04:55;19.60;73.00
61672;DHT22;47572;0.00000000;0.00000000;2022-11-11T01:07:21;19.60;73.00
61672;DHT22;47572;0.00000000;0.00000000;2022-11-11T01:09:47;19.60;73.00
61672;DHT22;47572;0.00000000;0.00000000;2022-11-11T01:12:12;19.60;73.00
61672;DHT22;47572;0.00000000;0.00000000;2022-11-11T01:14:38;19.60;73.00
61672;DHT22;47572;0.00000000;0.00000000;2022-11-11T01:17:04;19.60;73.10
61672;DHT22;47572;0.00000000;0.00000000;2022-11-11T01:19:30;19.60;73.00
61672;DHT22;47572;0.00000000;0.00000000;2022-11-11T01:21:56;19.60;73.00
61672;DHT22;47572;0.00000000;0.00000000;2022-11-11T01:24:22;19.60;73.10
61672;DHT22;47572;0.00000000;0.00000000;2022-11-11T01:26:48;19.60;73.10
61672;DHT22;47572;0.00000000;0.00000000;2022-11-11T01:29:14;19.60;73.10
61672;DHT22;47572;0.00000000;0.00000000;2022-11-11T01:31:39;19.60;73.10
61672;DHT22;47572;0.00000000;0.00000000;2022-11-11T01:34:05;19.50;73.00
61672;DHT22;47572;0.00000000;0.00000000;2022-11-11T01:36:31;19.50;73.10
61672;DHT22;47572;0.00000000;0.00000000;2022-11-11T01:38:57;19.50;73.10
61672;DHT22;47572;0.00000000;0.00000000;2022-11-11T01:41:32;19.50;73.10
61672;DHT22;47572;0.00000000;0.00000000;2022-11-11T01:46:45;19.50;73.10
61672;DHT22;47572;0.00000000;0.00000000;2022-11-11T01:51:53;19.50;73.10
61672;DHT22;47572;0.00000000;0.00000000;2022-11-11T01:56:57;19.50;73.00
61672;DHT22;47572;0.00000000;0.00000000;2022-11-11T01:59:24;19.50;73.00
61672;DHT22;47572;0.00000000;0.00000000;2022-11-11T02:01:51;19.50;73.20
61672;DHT22;47572;0.00000000;0.00000000;2022-11-11T02:04:16;19.50;73.20
61672;DHT22;47572;0.00000000;0.00000000;2022-11-11T02:07:03;19.50;73.30
61672;DHT22;47572;0.00000000;0.00000000;2022-11-11T02:09:30;19.50;73.30
61672;DHT22;47572;0.00000000;0.00000000;2022-11-11T02:11:57;19.40;73.20
61672;DHT22;47572;0.00000000;0.00000000;2022-11-11T02:14:43;19.40;73.20
61672;DHT22;47572;0.00000000;0.00000000;2022-11-11T02:17:10;19.40;73.20
61672;DHT22;47572;0.00000000;0.00000000;2022-11-11T02:22:03;19.40;73.20
61672;DHT22;47572;0.00000000;0.00000000;2022-11-11T02:24:32;19.40;73.20
61672;DHT22;47572;0.00000000;0.00000000;2022-11-11T02:26:58;19.40;73.20
61672;DHT22;47572;0.00000000;0.00000000;2022-11-11T02:29:24;19.40;73.20
61672;DHT22;47572;0.00000000;0.00000000;2022-11-11T02:31:50;19.40;73.20
61672;DHT22;47572;0.00000000;0.00000000;2022-11-11T02:34:16;19.40;73.20
61672;DHT22;47572;0.00000000;0.00000000;2022-11-11T02:36:41;19.40;73.20
61672;DHT22;47572;0.00000000;0.00000000;2022-11-11T02:39:08;19.40;73.10
61672;DHT22;47572;0.00000000;0.00000000;2022-11-11T02:41:34;19.30;73.10
61672;DHT22;47572;0.00000000;0.00000000;2022-11-11T02:44:19;19.30;73.10
61672;DHT22;47572;0.00000000;0.00000000;2022-11-11T02:46:45;19.30;73.10
61672;DHT22;47572;0.00000000;0.00000000;2022-11-11T02:49:10;19.30;73.20
61672;DHT22;47572;0.00000000;0.00000000;2022-11-11T02:51:36;19.30;73.20
61672;DHT22;47572;0.00000000;0.00000000;2022-11-11T02:54:02;19.30;73.20
61672;DHT22;47572;0.00000000;0.00000000;2022-11-11T02:56:27;19.30;73.20
61672;DHT22;47572;0.00000000;0.00000000;2022-11-11T02:59:12;19.30;73.20
61672;DHT22;47572;0.00000000;0.00000000;2022-11-11T03:01:38;19.30;73.20
61672;DHT22;47572;0.00000000;0.00000000;2022-11-11T03:04:04;19.30;73.20
61672;DHT22;47572;0.00000000;0.00000000;2022-11-11T03:06:29;19.30;73.20
61672;DHT22;47572;0.00000000;0.00000000;2022-11-11T03:08:55;19.30;73.20
61672;DHT22;47572;0.00000000;0.00000000;2022-11-11T03:11:21;19.30;73.10
61672;DHT22;47572;0.00000000;0.00000000;2022-11-11T03:13:53;19.30;73.30
61672;DHT22;47572;0.00000000;0.00000000;2022-11-11T03:16:19;19.30;74.10
61672;DHT22;47572;0.00000000;0.00000000;2022-11-11T03:19:03;19.20;73.20
61672;DHT22;47572;0.00000000;0.00000000;2022-11-11T03:21:29;19.20;73.20
61672;DHT22;47572;0.00000000;0.00000000;2022-11-11T03:23:55;19.20;73.20
61672;DHT22;47572;0.00000000;0.00000000;2022-11-11T03:26:20;19.20;73.20
61672;DHT22;47572;0.00000000;0.00000000;2022-11-11T03:28:46;19.20;73.20
61672;DHT22;47572;0.00000000;0.00000000;2022-11-11T03:31:12;19.20;74.00
61672;DHT22;47572;0.00000000;0.00000000;2022-11-11T03:33:37;19.20;73.20
61672;DHT22;47572;0.00000000;0.00000000;2022-11-11T03:36:03;19.20;73.20
61672;DHT22;47572;0.00000000;0.00000000;2022-11-11T03:38:29;19.20;73.20
61672;DHT22;47572;0.00000000;0.00000000;2022-11-11T03:40:56;19.20;73.10
61672;DHT22;47572;0.00000000;0.00000000;2022-11-11T03:43:25;19.20;73.20
61672;DHT22;47572;0.00000000;0.00000000;2022-11-11T03:45:53;19.20;73.20
61672;DHT22;47572;0.00000000;0.00000000;2022-11-11T03:48:19;19.20;73.20
61672;DHT22;47572;0.00000000;0.00000000;2022-11-11T03:50:45;19.20;73.20
61672;DHT22;47572;0.00000000;0.00000000;2022-11-11T03:53:12;19.20;73.20
61672;DHT22;47572;0.00000000;0.00000000;2022-11-11T03:55:39;19.20;73.20
61672;DHT22;47572;0.00000000;0.00000000;2022-11-11T03:58:05;19.20;73.20
61672;DHT22;47572;0.00000000;0.00000000;2022-11-11T04:00:31;19.20;73.20
61672;DHT22;47572;0.00000000;0.00000000;2022-11-11T04:03:08;19.10;73.20
61672;DHT22;47572;0.00000000;0.00000000;2022-11-11T04:05:52;19.20;73.20
61672;DHT22;47572;0.00000000;0.00000000;2022-11-11T04:08:37;19.10;73.10
61672;DHT22;47572;0.00000000;0.00000000;2022-11-11T04:11:54;19.10;73.10
61672;DHT22;47572;0.00000000;0.00000000;2022-11-11T04:14:13;19.10;73.10
61672;DHT22;47572;0.00000000;0.00000000;2022-11-11T04:16:57;19.10;73.10
61672;DHT22;47572;0.00000000;0.00000000;2022-11-11T04:19:23;19.10;73.10
61672;DHT22;47572;0.00000000;0.00000000;2022-11-11T04:22:07;19.10;73.10
61672;DHT22;47572;0.00000000;0.00000000;2022-11-11T04:24:33;19.10;73.10
61672;DHT22;47572;0.00000000;0.00000000;2022-11-11T04:27:18;19.10;73.10
61672;DHT22;47572;0.00000000;0.00000000;2022-11-11T04:29:44;19.10;73.10
61672;DHT22;47572;0.00000000;0.00000000;2022-11-11T04:32:13;19.10;73.10
61672;DHT22;47572;0.00000000;0.00000000;2022-11-11T04:34:58;19.10;73.10
61672;DHT22;47572;0.00000000;0.00000000;2022-11-11T04:37:25;19.10;73.10
61672;DHT22;47572;0.00000000;0.00000000;2022-11-11T04:39:51;19.10;73.10
61672;DHT22;47572;0.00000000;0.00000000;2022-11-11T04:42:36;19.10;73.10
61672;DHT22;47572;0.00000000;0.00000000;2022-11-11T04:45:04;19.00;73.00
61672;DHT22;47572;0.00000000;0.00000000;2022-11-11T04:47:56;19.10;73.10
61672;DHT22;47572;0.00000000;0.00000000;2022-11-11T04:50:22;19.00;73.00
61672;DHT22;47572;0.00000000;0.00000000;2022-11-11T04:52:48;19.00;73.00
61672;DHT22;47572;0.00000000;0.00000000;2022-11-11T04:55:14;19.00;73.00
61672;DHT22;47572;0.00000000;0.00000000;2022-11-11T04:57:59;19.00;73.00
61672;DHT22;47572;0.00000000;0.00000000;2022-11-11T05:00:24;19.00;73.00
61672;DHT22;47572;0.00000000;0.00000000;2022-11-11T05:02:54;19.00;73.00
61672;DHT22;47572;0.00000000;0.00000000;2022-11-11T05:05:38;19.00;73.00
61672;DHT22;47572;0.00000000;0.00000000;2022-11-11T05:08:22;19.00;73.00
61672;DHT22;47572;0.00000000;0.00000000;2022-11-11T05:11:07;19.00;73.00
61672;DHT22;47572;0.00000000;0.00000000;2022-11-11T05:13:32;19.00;73.00
61672;DHT22;47572;0.00000000;0.00000000;2022-11-11T05:16:18;19.00;73.00
61672;DHT22;47572;0.00000000;0.00000000;2022-11-11T05:19:03;19.00;73.00
61672;DHT22;47572;0.00000000;0.00000000;2022-11-11T05:21:47;19.00;73.00
61672;DHT22;47572;0.00000000;0.00000000;2022-11-11T05:24:13;19.00;73.00
61672;DHT22;47572;0.00000000;0.00000000;2022-11-11T05:26:58;19.00;73.00
61672;DHT22;47572;0.00000000;0.00000000;2022-11-11T05:29:24;19.00;73.00
61672;DHT22;47572;0.00000000;0.00000000;2022-11-11T05:31:49;19.00;73.00
61672;DHT22;47572;0.00000000;0.00000000;2022-11-11T05:34:15;18.90;73.00
61672;DHT22;47572;0.00000000;0.00000000;2022-11-11T05:36:41;18.90;73.00
61672;DHT22;47572;0.00000000;0.00000000;2022-11-11T05:39:06;18.90;73.00
61672;DHT22;47572;0.00000000;0.00000000;2022-11-11T05:41:32;18.90;73.00
61672;DHT22;47572;0.00000000;0.00000000;2022-11-11T05:43:58;18.90;73.00
61672;DHT22;47572;0.00000000;0.00000000;2022-11-11T05:46:23;18.90;73.00
61672;DHT22;47572;0.00000000;0.00000000;2022-11-11T05:48:50;19.00;73.00
61672;DHT22;47572;0.00000000;0.00000000;2022-11-11T05:51:34;19.00;73.00
61672;DHT22;47572;0.00000000;0.00000000;2022-11-11T05:54:00;18.90;73.00
61672;DHT22;47572;0.00000000;0.00000000;2022-11-11T05:56:25;18.90;73.00
61672;DHT22;47572;0.00000000;0.00000000;2022-11-11T05:58:51;18.90;73.00
61672;DHT22;47572;0.00000000;0.00000000;2022-11-11T06:01:18;18.90;73.00
61672;DHT22;47572;0.00000000;0.00000000;2022-11-11T06:03:44;18.90;73.00
61672;DHT22;47572;0.00000000;0.00000000;2022-11-11T06:06:10;18.90;73.00
61672;DHT22;47572;0.00000000;0.00000000;2022-11-11T06:08:36;18.90;73.00
61672;DHT22;47572;0.00000000;0.00000000;2022-11-11T06:11:01;18.90;73.00
61672;DHT22;47572;0.00000000;0.00000000;2022-11-11T06:13:27;18.90;73.00
61672;DHT22;47572;0.00000000;0.00000000;2022-11-11T06:15:54;18.90;73.00
61672;DHT22;47572;0.00000000;0.00000000;2022-11-11T06:18:20;18.90;73.10
61672;DHT22;47572;0.00000000;0.00000000;2022-11-11T06:20:50;18.90;73.00
61672;DHT22;47572;0.00000000;0.00000000;2022-11-11T06:23:16;18.90;73.00
61672;DHT22;47572;0.00000000;0.00000000;2022-11-11T06:25:42;18.90;73.00
61672;DHT22;47572;0.00000000;0.00000000;2022-11-11T06:28:26;18.90;73.00
61672;DHT22;47572;0.00000000;0.00000000;2022-11-11T06:30:52;18.90;73.00
61672;DHT22;47572;0.00000000;0.00000000;2022-11-11T06:33:29;18.90;73.00
61672;DHT22;47572;0.00000000;0.00000000;2022-11-11T06:35:55;18.80;72.90
61672;DHT22;47572;0.00000000;0.00000000;2022-11-11T06:38:20;18.80;72.90
61672;DHT22;47572;0.00000000;0.00000000;2022-11-11T06:40:46;18.80;72.90
61672;DHT22;47572;0.00000000;0.00000000;2022-11-11T06:43:12;18.80;72.90
61672;DHT22;47572;0.00000000;0.00000000;2022-11-11T06:45:38;18.80;72.90
61672;DHT22;47572;0.00000000;0.00000000;2022-11-11T06:48:04;18.80;72.90
61672;DHT22;47572;0.00000000;0.00000000;2022-11-11T06:50:31;18.80;73.00
61672;DHT22;47572;0.00000000;0.00000000;2022-11-11T06:53:04;18.90;73.00
61672;DHT22;47572;0.00000000;0.00000000;2022-11-11T06:55:31;18.80;73.70
61672;DHT22;47572;0.00000000;0.00000000;2022-11-11T06:58:03;18.80;72.90
61672;DHT22;47572;0.00000000;0.00000000;2022-11-11T07:00:28;18.80;72.90
61672;DHT22;47572;0.00000000;0.00000000;2022-11-11T07:02:54;18.80;72.90
61672;DHT22;47572;0.00000000;0.00000000;2022-11-11T07:05:21;18.80;72.90
61672;DHT22;47572;0.00000000;0.00000000;2022-11-11T07:07:46;18.80;72.90
61672;DHT22;47572;0.00000000;0.00000000;2022-11-11T07:10:12;18.80;72.90
61672;DHT22;47572;0.00000000;0.00000000;2022-11-11T07:12:42;18.80;73.00
61672;DHT22;47572;0.00000000;0.00000000;2022-11-11T07:15:07;18.80;73.00
61672;DHT22;47572;0.00000000;0.00000000;2022-11-11T07:17:33;18.80;72.90
61672;DHT22;47572;0.00000000;0.00000000;2022-11-11T07:19:59;18.80;72.90
61672;DHT22;47572;0.00000000;0.00000000;2022-11-11T07:22:25;18.70;72.90
61672;DHT22;47572;0.00000000;0.00000000;2022-11-11T07:24:51;18.70;72.80
61672;DHT22;47572;0.00000000;0.00000000;2022-11-11T07:27:16;18.80;72.90
61672;DHT22;47572;0.00000000;0.00000000;2022-11-11T07:29:42;18.70;72.90
61672;DHT22;47572;0.00000000;0.00000000;2022-11-11T07:32:08;18.70;72.90
61672;DHT22;47572;0.00000000;0.00000000;2022-11-11T07:34:34;18.70;72.90
61672;DHT22;47572;0.00000000;0.00000000;2022-11-11T07:37:00;18.70;72.90
61672;DHT22;47572;0.00000000;0.00000000;2022-11-11T07:39:25;18.70;72.90
61672;DHT22;47572;0.00000000;0.00000000;2022-11-11T07:41:51;18.70;72.90
61672;DHT22;47572;0.00000000;0.00000000;2022-11-11T07:44:17;18.70;72.90
61672;DHT22;47572;0.00000000;0.00000000;2022-11-11T07:46:42;18.70;72.90
61672;DHT22;47572;0.00000000;0.00000000;2022-11-11T07:49:08;18.70;72.70
61672;DHT22;47572;0.00000000;0.00000000;2022-11-11T07:51:34;18.70;72.70
61672;DHT22;47572;0.00000000;0.00000000;2022-11-11T07:54:00;18.70;72.70
61672;DHT22;47572;0.00000000;0.00000000;2022-11-11T07:56:26;18.70;72.70
61672;DHT22;47572;0.00000000;0.00000000;2022-11-11T07:58:52;18.70;72.80
61672;DHT22;47572;0.00000000;0.00000000;2022-11-11T08:01:17;18.70;72.80
61672;DHT22;47572;0.00000000;0.00000000;2022-11-11T08:03:43;18.70;72.90
61672;DHT22;47572;0.00000000;0.00000000;2022-11-11T08:06:18;18.70;72.90
61672;DHT22;47572;0.00000000;0.00000000;2022-11-11T08:08:44;18.70;72.90
61672;DHT22;47572;0.00000000;0.00000000;2022-11-11T08:11:10;18.70;72.80
61672;DHT22;47572;0.00000000;0.00000000;2022-11-11T08:13:36;18.70;72.80
61672;DHT22;47572;0.00000000;0.00000000;2022-11-11T08:16:06;18.70;72.80
61672;DHT22;47572;0.00000000;0.00000000;2022-11-11T08:18:32;18.80;72.90
61672;DHT22;47572;0.00000000;0.00000000;2022-11-11T08:20:59;18.80;73.00
61672;DHT22;47572;0.00000000;0.00000000;2022-11-11T08:23:24;18.90;72.90
61672;DHT22;47572;0.00000000;0.00000000;2022-11-11T08:26:03;18.90;72.60
61672;DHT22;47572;0.00000000;0.00000000;2022-11-11T08:28:30;19.00;72.40
61672;DHT22;47572;0.00000000;0.00000000;2022-11-11T08:30:57;19.10;72.20
61672;DHT22;47572;0.00000000;0.00000000;2022-11-11T08:33:22;19.20;72.00
61672;DHT22;47572;0.00000000;0.00000000;2022-11-11T08:35:48;19.30;71.60
61672;DHT22;47572;0.00000000;0.00000000;2022-11-11T08:38:14;19.40;71.30
61672;DHT22;47572;0.00000000;0.00000000;2022-11-11T08:40:40;19.60;70.90
61672;DHT22;47572;0.00000000;0.00000000;2022-11-11T08:43:06;19.70;70.50
61672;DHT22;47572;0.00000000;0.00000000;2022-11-11T08:45:31;19.80;70.20
61672;DHT22;47572;0.00000000;0.00000000;2022-11-11T08:47:57;20.00;70.00
61672;DHT22;47572;0.00000000;0.00000000;2022-11-11T08:50:23;20.10;69.70
61672;DHT22;47572;0.00000000;0.00000000;2022-11-11T08:52:50;20.10;69.30
61672;DHT22;47572;0.00000000;0.00000000;2022-11-11T08:55:16;20.20;69.20
61672;DHT22;47572;0.00000000;0.00000000;2022-11-11T08:57:42;20.30;69.00
61672;DHT22;47572;0.00000000;0.00000000;2022-11-11T09:00:08;20.30;68.80
61672;DHT22;47572;0.00000000;0.00000000;2022-11-11T09:02:34;20.40;68.60
61672;DHT22;47572;0.00000000;0.00000000;2022-11-11T09:05:00;20.40;68.50
61672;DHT22;47572;0.00000000;0.00000000;2022-11-11T09:07:26;20.50;68.30
61672;DHT22;47572;0.00000000;0.00000000;2022-11-11T09:09:52;20.50;68.20
61672;DHT22;47572;0.00000000;0.00000000;2022-11-11T09:12:17;20.60;68.20
61672;DHT22;47572;0.00000000;0.00000000;2022-11-11T09:14:43;20.60;68.00
61672;DHT22;47572;0.00000000;0.00000000;2022-11-11T09:17:09;20.60;68.00
61672;DHT22;47572;0.00000000;0.00000000;2022-11-11T09:19:34;20.70;68.00
61672;DHT22;47572;0.00000000;0.00000000;2022-11-11T09:22:00;20.70;68.00
61672;DHT22;47572;0.00000000;0.00000000;2022-11-11T09:24:26;20.70;67.90
61672;DHT22;47572;0.00000000;0.00000000;2022-11-11T09:26:51;20.80;67.80
61672;DHT22;47572;0.00000000;0.00000000;2022-11-11T09:29:17;20.80;67.70
61672;DHT22;47572;0.00000000;0.00000000;2022-11-11T09:31:44;20.80;67.70
61672;DHT22;47572;0.00000000;0.00000000;2022-11-11T09:34:09;20.80;67.60
61672;DHT22;47572;0.00000000;0.00000000;2022-11-11T09:36:35;20.90;67.60
61672;DHT22;47572;0.00000000;0.00000000;2022-11-11T09:39:01;20.90;67.50
61672;DHT22;47572;0.00000000;0.00000000;2022-11-11T09:44:02;20.90;67.60
61672;DHT22;47572;0.00000000;0.00000000;2022-11-11T09:46:36;20.80;67.70
61672;DHT22;47572;0.00000000;0.00000000;2022-11-11T09:49:09;20.80;67.90
61672;DHT22;47572;0.00000000;0.00000000;2022-11-11T09:51:44;20.70;68.10
61672;DHT22;47572;0.00000000;0.00000000;2022-11-11T09:54:14;20.70;68.50
61672;DHT22;47572;0.00000000;0.00000000;2022-11-11T09:56:41;20.60;68.70
61672;DHT22;47572;0.00000000;0.00000000;2022-11-11T09:59:09;20.50;68.80
61672;DHT22;47572;0.00000000;0.00000000;2022-11-11T10:01:38;20.50;69.10
61672;DHT22;47572;0.00000000;0.00000000;2022-11-11T10:04:15;20.40;69.20
61672;DHT22;47572;0.00000000;0.00000000;2022-11-11T10:06:41;20.40;69.40
61672;DHT22;47572;0.00000000;0.00000000;2022-11-11T10:14:32;20.20;69.80
61672;DHT22;47572;0.00000000;0.00000000;2022-11-11T10:19:32;20.10;70.10
61672;DHT22;47572;0.00000000;0.00000000;2022-11-11T10:21:59;20.10;70.30
61672;DHT22;47572;0.00000000;0.00000000;2022-11-11T10:24:34;20.10;70.50
61672;DHT22;47572;0.00000000;0.00000000;2022-11-11T10:27:03;20.00;70.50
61672;DHT22;47572;0.00000000;0.00000000;2022-11-11T10:29:35;20.00;70.70
61672;DHT22;47572;0.00000000;0.00000000;2022-11-11T10:32:15;19.90;70.70
61672;DHT22;47572;0.00000000;0.00000000;2022-11-11T10:34:42;19.90;70.80
61672;DHT22;47572;0.00000000;0.00000000;2022-11-11T10:37:18;19.90;70.90
61672;DHT22;47572;0.00000000;0.00000000;2022-11-11T10:39:47;19.80;70.90
61672;DHT22;47572;0.00000000;0.00000000;2022-11-11T10:42:15;19.80;71.00
61672;DHT22;47572;0.00000000;0.00000000;2022-11-11T10:44:42;19.80;71.00
61672;DHT22;47572;0.00000000;0.00000000;2022-11-11T10:49:37;19.70;71.10
61672;DHT22;47572;0.00000000;0.00000000;2022-11-11T10:52:08;19.70;71.20
61672;DHT22;47572;0.00000000;0.00000000;2022-11-11T10:54:59;19.70;71.40
61672;DHT22;47572;0.00000000;0.00000000;2022-11-11T10:59:52;19.60;71.40
61672;DHT22;47572;0.00000000;0.00000000;2022-11-11T11:02:24;19.60;71.50
61672;DHT22;47572;0.00000000;0.00000000;2022-11-11T11:04:52;19.60;71.50
61672;DHT22;47572;0.00000000;0.00000000;2022-11-11T11:07:21;19.60;71.60
61672;DHT22;47572;0.00000000;0.00000000;2022-11-11T11:12:15;19.60;71.70
61672;DHT22;47572;0.00000000;0.00000000;2022-11-11T11:14:43;19.50;71.70
61672;DHT22;47572;0.00000000;0.00000000;2022-11-11T11:17:19;19.50;71.80
61672;DHT22;47572;0.00000000;0.00000000;2022-11-11T11:20:05;19.50;71.80
61672;DHT22;47572;0.00000000;0.00000000;2022-11-11T11:25:16;19.50;72.00
61672;DHT22;47572;0.00000000;0.00000000;2022-11-11T11:27:43;19.50;72.00
61672;DHT22;47572;0.00000000;0.00000000;2022-11-11T11:30:19;19.50;72.10
61672;DHT22;47572;0.00000000;0.00000000;2022-11-11T11:32:56;19.50;72.20
61672;DHT22;47572;0.00000000;0.00000000;2022-11-11T11:35:31;19.40;72.20
61672;DHT22;47572;0.00000000;0.00000000;2022-11-11T11:37:57;19.40;72.20
61672;DHT22;47572;0.00000000;0.00000000;2022-11-11T11:40:23;19.40;72.20
61672;DHT22;47572;0.00000000;0.00000000;2022-11-11T11:42:48;19.40;72.30
61672;DHT22;47572;0.00000000;0.00000000;2022-11-11T11:45:15;19.40;72.30
61672;DHT22;47572;0.00000000;0.00000000;2022-11-11T11:50:20;19.40;72.50
61672;DHT22;47572;0.00000000;0.00000000;2022-11-11T11:55:36;19.40;72.50
61672;DHT22;47572;0.00000000;0.00000000;2022-11-11T12:00:37;19.30;72.40
61672;DHT22;47572;0.00000000;0.00000000;2022-11-11T12:05:42;19.30;72.40
61672;DHT22;47572;0.00000000;0.00000000;2022-11-11T12:08:17;19.30;72.40
61672;DHT22;47572;0.00000000;0.00000000;2022-11-11T12:16:25;19.30;72.40
61672;DHT22;47572;0.00000000;0.00000000;2022-11-11T12:32:27;19.20;72.30
61672;DHT22;47572;0.00000000;0.00000000;2022-11-11T12:37:32;19.20;72.30
61672;DHT22;47572;0.00000000;0.00000000;2022-11-11T12:40:16;19.20;72.30
61672;DHT22;47572;0.00000000;0.00000000;2022-11-11T12:42:55;19.20;72.20
61672;DHT22;47572;0.00000000;0.00000000;2022-11-11T12:45:29;19.20;72.30
61672;DHT22;47572;0.00000000;0.00000000;2022-11-11T12:58:27;19.20;72.40
61672;DHT22;47572;0.00000000;0.00000000;2022-11-11T13:06:03;19.20;72.50
61672;DHT22;47572;0.00000000;0.00000000;2022-11-11T13:08:41;19.20;72.50
61672;DHT22;47572;0.00000000;0.00000000;2022-11-11T13:16:37;19.20;72.50
61672;DHT22;47572;0.00000000;0.00000000;2022-11-11T13:19:04;19.10;72.50
61672;DHT22;47572;0.00000000;0.00000000;2022-11-11T13:24:01;19.10;72.40
61672;DHT22;47572;0.00000000;0.00000000;2022-11-11T13:26:36;19.10;72.50
61672;DHT22;47572;0.00000000;0.00000000;2022-11-11T13:29:08;19.10;72.50
61672;DHT22;47572;0.00000000;0.00000000;2022-11-11T13:31:40;19.10;72.70
61672;DHT22;47572;0.00000000;0.00000000;2022-11-11T13:34:11;19.10;72.70
61672;DHT22;47572;0.00000000;0.00000000;2022-11-11T13:36:51;19.10;72.80
61672;DHT22;47572;0.00000000;0.00000000;2022-11-11T13:39:39;19.10;72.80
61672;DHT22;47572;0.00000000;0.00000000;2022-11-11T13:42:04;19.10;72.80
61672;DHT22;47572;0.00000000;0.00000000;2022-11-11T13:44:53;19.10;72.90
61672;DHT22;47572;0.00000000;0.00000000;2022-11-11T13:47:21;19.10;72.90
61672;DHT22;47572;0.00000000;0.00000000;2022-11-11T13:52:21;19.10;72.90
61672;DHT22;47572;0.00000000;0.00000000;2022-11-11T13:54:53;19.10;72.80
61672;DHT22;47572;0.00000000;0.00000000;2022-11-11T13:57:22;19.10;72.90
61672;DHT22;47572;0.00000000;0.00000000;2022-11-11T13:59:59;19.10;73.00
61672;DHT22;47572;0.00000000;0.00000000;2022-11-11T14:02:30;19.10;73.10
61672;DHT22;47572;0.00000000;0.00000000;2022-11-11T14:12:53;19.10;73.00
61672;DHT22;47572;0.00000000;0.00000000;2022-11-11T14:17:57;19.10;73.00
61672;DHT22;47572;0.00000000;0.00000000;2022-11-11T14:20:36;19.00;72.90
61672;DHT22;47572;0.00000000;0.00000000;2022-11-11T14:23:25;19.00;72.90
61672;DHT22;47572;0.00000000;0.00000000;2022-11-11T14:25:49;19.00;72.80
61672;DHT22;47572;0.00000000;0.00000000;2022-11-11T14:28:19;19.00;72.70
61672;DHT22;47572;0.00000000;0.00000000;2022-11-11T14:30:45;19.00;72.70
61672;DHT22;47572;0.00000000;0.00000000;2022-11-11T14:36:00;19.00;72.60
61672;DHT22;47572;0.00000000;0.00000000;2022-11-11T14:43:55;19.00;72.70
61672;DHT22;47572;0.00000000;0.00000000;2022-11-11T14:54:45;19.00;72.70
61672;DHT22;47572;0.00000000;0.00000000;2022-11-11T14:57:18;18.90;72.70
61672;DHT22;47572;0.00000000;0.00000000;2022-11-11T14:59:45;19.00;72.80
61672;DHT22;47572;0.00000000;0.00000000;2022-11-11T15:02:17;18.90;72.70
61672;DHT22;47572;0.00000000;0.00000000;2022-11-11T15:04:46;18.90;72.80
61672;DHT22;47572;0.00000000;0.00000000;2022-11-11T15:07:15;18.90;72.80
61672;DHT22;47572;0.00000000;0.00000000;2022-11-11T15:35:45;18.90;73.20
61672;DHT22;47572;0.00000000;0.00000000;2022-11-11T15:38:14;18.90;73.10
61672;DHT22;47572;0.00000000;0.00000000;2022-11-11T15:43:14;18.90;73.20
61672;DHT22;47572;0.00000000;0.00000000;2022-11-11T15:45:41;18.90;73.20
61672;DHT22;47572;0.00000000;0.00000000;2022-11-11T15:48:23;18.90;73.30
61672;DHT22;47572;0.00000000;0.00000000;2022-11-11T15:50:50;18.90;73.30
61672;DHT22;47572;0.00000000;0.00000000;2022-11-11T15:53:20;18.90;73.30
61672;DHT22;47572;0.00000000;0.00000000;2022-11-11T15:55:55;18.90;73.30
61672;DHT22;47572;0.00000000;0.00000000;2022-11-11T15:58:29;19.00;73.30
61672;DHT22;47572;0.00000000;0.00000000;2022-11-11T16:00:55;19.00;73.30
61672;DHT22;47572;0.00000000;0.00000000;2022-11-11T16:03:33;18.90;73.30
61672;DHT22;47572;0.00000000;0.00000000;2022-11-11T16:06:01;19.00;73.20
61672;DHT22;47572;0.00000000;0.00000000;2022-11-11T16:08:27;18.90;73.10
61672;DHT22;47572;0.00000000;0.00000000;2022-11-11T16:10:57;18.90;73.10
61672;DHT22;47572;0.00000000;0.00000000;2022-11-11T16:13:37;18.90;73.20